sensor_id;sensor_type;location;lat;lon;timestamp;temperature;humidity
25616;DHT22;13482;48.234;13.006;2023-07-13T00:01:00;22.80;76.70
25616;DHT22;13482;48.234;13.006;2023-07-13T00:03:27;22.80;76.70
25616;DHT22;13482;48.234;13.006;2023-07-13T00:06:00;22.80;76.70
25616;DHT22;13482;48.234;13.006;2023-07-13T00:08:31;22.80;77.00
25616;DHT22;13482;48.234;13.006;2023-07-13T00:11:03;22.70;76.70
25616;DHT22;13482;48.234;13.006;2023-07-13T00:13:30;22.70;76.80
25616;DHT22;13482;48.234;13.006;2023-07-13T00:15:58;22.70;76.80
25616;DHT22;13482;48.234;13.006;2023-07-13T00:18:26;22.70;76.80
25616;DHT22;13482;48.234;13.006;2023-07-13T00:20:57;22.60;76.80
25616;DHT22;13482;48.234;13.006;2023-07-13T00:23:33;22.60;76.80
25616;DHT22;13482;48.234;13.006;2023-07-13T00:26:04;22.60;76.90
25616;DHT22;13482;48.234;13.006;2023-07-13T00:28:34;22.60;76.90
25616;DHT22;13482;48.234;13.006;2023-07-13T00:31:02;22.60;76.90
25616;DHT22;13482;48.234;13.006;2023-07-13T00:33:33;22.60;76.90
25616;DHT22;13482;48.234;13.006;2023-07-13T00:36:00;22.60;76.90
25616;DHT22;13482;48.234;13.006;2023-07-13T00:38:28;22.60;76.90
25616;DHT22;13482;48.234;13.006;2023-07-13T00:40:55;22.60;76.90
25616;DHT22;13482;48.234;13.006;2023-07-13T00:43:27;22.60;77.00
25616;DHT22;13482;48.234;13.006;2023-07-13T00:48:34;22.60;77.20
25616;DHT22;13482;48.234;13.006;2023-07-13T00:51:04;22.50;77.30
25616;DHT22;13482;48.234;13.006;2023-07-13T00:53:31;22.50;77.00
25616;DHT22;13482;48.234;13.006;2023-07-13T00:55:59;22.50;77.10
25616;DHT22;13482;48.234;13.006;2023-07-13T00:58:28;22.50;77.10
25616;DHT22;13482;48.234;13.006;2023-07-13T01:00:56;22.50;77.10
25616;DHT22;13482;48.234;13.006;2023-07-13T01:03:23;22.50;77.10
25616;DHT22;13482;48.234;13.006;2023-07-13T01:05:51;22.50;77.20
25616;DHT22;13482;48.234;13.006;2023-07-13T01:08:22;22.50;77.20
25616;DHT22;13482;48.234;13.006;2023-07-13T01:10:57;22.50;77.20
25616;DHT22;13482;48.234;13.006;2023-07-13T01:13:25;22.50;77.60
25616;DHT22;13482;48.234;13.006;2023-07-13T01:15:55;22.50;77.10
25616;DHT22;13482;48.234;13.006;2023-07-13T01:18:26;22.50;77.20
25616;DHT22;13482;48.234;13.006;2023-07-13T01:20:57;22.50;77.20
25616;DHT22;13482;48.234;13.006;2023-07-13T01:23:28;22.50;77.20
25616;DHT22;13482;48.234;13.006;2023-07-13T01:25:57;22.50;77.10
25616;DHT22;13482;48.234;13.006;2023-07-13T01:28:26;22.50;77.20
25616;DHT22;13482;48.234;13.006;2023-07-13T01:30:57;22.50;77.20
25616;DHT22;13482;48.234;13.006;2023-07-13T01:33:26;22.50;77.20
25616;DHT22;13482;48.234;13.006;2023-07-13T01:35:54;22.50;77.10
25616;DHT22;13482;48.234;13.006;2023-07-13T01:38:25;22.50;77.10
25616;DHT22;13482;48.234;13.006;2023-07-13T01:40:53;22.50;77.20
25616;DHT22;13482;48.234;13.006;2023-07-13T01:43:20;22.50;77.20
25616;DHT22;13482;48.234;13.006;2023-07-13T01:45:48;22.50;77.20
25616;DHT22;13482;48.234;13.006;2023-07-13T01:48:16;22.60;77.20
25616;DHT22;13482;48.234;13.006;2023-07-13T01:50:44;22.60;77.20
25616;DHT22;13482;48.234;13.006;2023-07-13T01:53:12;22.60;77.20
25616;DHT22;13482;48.234;13.006;2023-07-13T01:55:41;22.60;77.10
25616;DHT22;13482;48.234;13.006;2023-07-13T01:58:09;22.60;77.10
25616;DHT22;13482;48.234;13.006;2023-07-13T02:00:36;22.60;77.10
25616;DHT22;13482;48.234;13.006;2023-07-13T02:03:04;22.60;77.20
25616;DHT22;13482;48.234;13.006;2023-07-13T02:05:32;22.60;77.30
25616;DHT22;13482;48.234;13.006;2023-07-13T02:07:59;22.60;77.30
25616;DHT22;13482;48.234;13.006;2023-07-13T02:10:26;22.60;77.30
25616;DHT22;13482;48.234;13.006;2023-07-13T02:12:55;22.60;77.30
25616;DHT22;13482;48.234;13.006;2023-07-13T02:15:23;22.70;77.30
25616;DHT22;13482;48.234;13.006;2023-07-13T02:17:50;22.70;77.30
25616;DHT22;13482;48.234;13.006;2023-07-13T02:20:17;22.70;77.30
25616;DHT22;13482;48.234;13.006;2023-07-13T02:22:45;22.70;77.30
25616;DHT22;13482;48.234;13.006;2023-07-13T02:25:12;22.70;77.30
25616;DHT22;13482;48.234;13.006;2023-07-13T02:27:41;22.70;77.30
25616;DHT22;13482;48.234;13.006;2023-07-13T02:30:09;22.70;77.40
25616;DHT22;13482;48.234;13.006;2023-07-13T02:32:38;22.70;77.40
25616;DHT22;13482;48.234;13.006;2023-07-13T02:35:06;22.70;77.40
25616;DHT22;13482;48.234;13.006;2023-07-13T02:37:33;22.70;77.50
25616;DHT22;13482;48.234;13.006;2023-07-13T02:40:01;22.70;77.50
25616;DHT22;13482;48.234;13.006;2023-07-13T02:42:35;22.80;77.50
25616;DHT22;13482;48.234;13.006;2023-07-13T02:45:07;22.80;77.50
25616;DHT22;13482;48.234;13.006;2023-07-13T02:47:36;22.80;77.50
25616;DHT22;13482;48.234;13.006;2023-07-13T02:50:04;22.80;77.50
25616;DHT22;13482;48.234;13.006;2023-07-13T02:52:32;22.80;77.50
25616;DHT22;13482;48.234;13.006;2023-07-13T02:55:00;22.70;77.40
25616;DHT22;13482;48.234;13.006;2023-07-13T02:57:27;22.70;77.40
25616;DHT22;13482;48.234;13.006;2023-07-13T02:59:55;22.70;77.40
25616;DHT22;13482;48.234;13.006;2023-07-13T03:02:22;22.70;77.40
25616;DHT22;13482;48.234;13.006;2023-07-13T03:04:50;22.70;77.40
25616;DHT22;13482;48.234;13.006;2023-07-13T03:07:17;22.70;77.40
25616;DHT22;13482;48.234;13.006;2023-07-13T03:09:44;22.70;77.40
25616;DHT22;13482;48.234;13.006;2023-07-13T03:12:12;22.70;77.40
25616;DHT22;13482;48.234;13.006;2023-07-13T03:14:39;22.70;77.40
25616;DHT22;13482;48.234;13.006;2023-07-13T03:17:07;22.70;77.30
25616;DHT22;13482;48.234;13.006;2023-07-13T03:19:34;22.70;77.30
25616;DHT22;13482;48.234;13.006;2023-07-13T03:22:02;22.70;77.30
25616;DHT22;13482;48.234;13.006;2023-07-13T03:24:29;22.70;77.40
25616;DHT22;13482;48.234;13.006;2023-07-13T03:26:57;22.70;77.30
25616;DHT22;13482;48.234;13.006;2023-07-13T03:29:27;22.70;77.40
25616;DHT22;13482;48.234;13.006;2023-07-13T03:31:55;22.70;77.40
25616;DHT22;13482;48.234;13.006;2023-07-13T03:34:22;22.70;77.40
25616;DHT22;13482;48.234;13.006;2023-07-13T03:36:50;22.60;77.40
25616;DHT22;13482;48.234;13.006;2023-07-13T03:39:21;22.60;77.40
25616;DHT22;13482;48.234;13.006;2023-07-13T03:41:50;22.60;77.40
25616;DHT22;13482;48.234;13.006;2023-07-13T03:44:17;22.60;77.40
25616;DHT22;13482;48.234;13.006;2023-07-13T03:46:45;22.60;77.40
25616;DHT22;13482;48.234;13.006;2023-07-13T03:49:13;22.60;77.50
25616;DHT22;13482;48.234;13.006;2023-07-13T03:51:40;22.60;77.40
25616;DHT22;13482;48.234;13.006;2023-07-13T03:54:08;22.60;77.40
25616;DHT22;13482;48.234;13.006;2023-07-13T03:56:35;22.60;77.30
25616;DHT22;13482;48.234;13.006;2023-07-13T03:59:03;22.60;77.30
25616;DHT22;13482;48.234;13.006;2023-07-13T04:01:31;22.60;77.30
25616;DHT22;13482;48.234;13.006;2023-07-13T04:03:59;22.60;77.30
25616;DHT22;13482;48.234;13.006;2023-07-13T04:06:30;22.60;77.40
25616;DHT22;13482;48.234;13.006;2023-07-13T04:09:00;22.60;77.40
25616;DHT22;13482;48.234;13.006;2023-07-13T04:11:30;22.60;77.50
25616;DHT22;13482;48.234;13.006;2023-07-13T04:13:59;22.50;77.50
25616;DHT22;13482;48.234;13.006;2023-07-13T04:16:27;22.50;77.50
25616;DHT22;13482;48.234;13.006;2023-07-13T04:18:55;22.50;77.50
25616;DHT22;13482;48.234;13.006;2023-07-13T04:21:29;22.50;77.60
25616;DHT22;13482;48.234;13.006;2023-07-13T04:23:58;22.50;77.60
25616;DHT22;13482;48.234;13.006;2023-07-13T04:26:26;22.50;77.70
25616;DHT22;13482;48.234;13.006;2023-07-13T04:28:54;22.50;77.80
25616;DHT22;13482;48.234;13.006;2023-07-13T04:31:21;22.50;77.80
25616;DHT22;13482;48.234;13.006;2023-07-13T04:33:52;22.50;77.80
25616;DHT22;13482;48.234;13.006;2023-07-13T04:36:22;22.50;77.90
25616;DHT22;13482;48.234;13.006;2023-07-13T04:39:11;22.50;77.90
25616;DHT22;13482;48.234;13.006;2023-07-13T04:41:39;22.50;77.90
25616;DHT22;13482;48.234;13.006;2023-07-13T04:44:09;22.50;77.90
25616;DHT22;13482;48.234;13.006;2023-07-13T04:46:43;22.50;78.00
25616;DHT22;13482;48.234;13.006;2023-07-13T04:49:11;22.50;78.00
25616;DHT22;13482;48.234;13.006;2023-07-13T04:51:39;22.60;78.10
25616;DHT22;13482;48.234;13.006;2023-07-13T04:54:06;22.60;78.10
25616;DHT22;13482;48.234;13.006;2023-07-13T04:56:35;22.60;78.10
25616;DHT22;13482;48.234;13.006;2023-07-13T04:59:02;22.60;78.20
25616;DHT22;13482;48.234;13.006;2023-07-13T05:01:30;22.60;78.20
25616;DHT22;13482;48.234;13.006;2023-07-13T05:03:58;22.60;78.20
25616;DHT22;13482;48.234;13.006;2023-07-13T05:06:27;22.60;78.20
25616;DHT22;13482;48.234;13.006;2023-07-13T05:08:55;22.60;78.20
25616;DHT22;13482;48.234;13.006;2023-07-13T05:11:23;22.70;78.20
25616;DHT22;13482;48.234;13.006;2023-07-13T05:13:51;22.70;78.20
25616;DHT22;13482;48.234;13.006;2023-07-13T05:16:19;22.70;78.20
25616;DHT22;13482;48.234;13.006;2023-07-13T05:18:47;22.70;78.20
25616;DHT22;13482;48.234;13.006;2023-07-13T05:21:14;22.70;78.10
25616;DHT22;13482;48.234;13.006;2023-07-13T05:23:42;22.70;78.10
25616;DHT22;13482;48.234;13.006;2023-07-13T05:26:10;22.70;78.10
25616;DHT22;13482;48.234;13.006;2023-07-13T05:28:39;22.70;78.10
25616;DHT22;13482;48.234;13.006;2023-07-13T05:31:10;22.70;78.20
25616;DHT22;13482;48.234;13.006;2023-07-13T05:33:39;22.70;78.20
25616;DHT22;13482;48.234;13.006;2023-07-13T05:36:07;22.70;78.20
25616;DHT22;13482;48.234;13.006;2023-07-13T05:38:35;22.70;78.20
25616;DHT22;13482;48.234;13.006;2023-07-13T05:41:02;22.70;78.30
25616;DHT22;13482;48.234;13.006;2023-07-13T05:43:34;22.80;78.30
25616;DHT22;13482;48.234;13.006;2023-07-13T05:46:01;22.80;78.40
25616;DHT22;13482;48.234;13.006;2023-07-13T05:48:30;22.80;78.40
25616;DHT22;13482;48.234;13.006;2023-07-13T05:50:57;22.80;78.50
25616;DHT22;13482;48.234;13.006;2023-07-13T05:53:24;22.80;78.50
25616;DHT22;13482;48.234;13.006;2023-07-13T05:55:54;22.90;78.50
25616;DHT22;13482;48.234;13.006;2023-07-13T05:58:23;22.90;78.50
25616;DHT22;13482;48.234;13.006;2023-07-13T06:00:59;22.90;78.40
25616;DHT22;13482;48.234;13.006;2023-07-13T06:03:29;23.00;78.50
25616;DHT22;13482;48.234;13.006;2023-07-13T06:05:57;23.00;78.30
25616;DHT22;13482;48.234;13.006;2023-07-13T06:08:28;23.00;78.20
25616;DHT22;13482;48.234;13.006;2023-07-13T06:13:43;23.00;78.50
25616;DHT22;13482;48.234;13.006;2023-07-13T06:16:12;23.00;78.50
25616;DHT22;13482;48.234;13.006;2023-07-13T06:18:40;23.00;78.60
25616;DHT22;13482;48.234;13.006;2023-07-13T06:21:16;23.00;78.60
25616;DHT22;13482;48.234;13.006;2023-07-13T06:23:48;23.00;78.60
25616;DHT22;13482;48.234;13.006;2023-07-13T06:26:18;23.00;78.70
25616;DHT22;13482;48.234;13.006;2023-07-13T06:28:46;23.00;78.60
25616;DHT22;13482;48.234;13.006;2023-07-13T06:31:15;23.00;78.60
25616;DHT22;13482;48.234;13.006;2023-07-13T06:33:43;23.00;78.70
25616;DHT22;13482;48.234;13.006;2023-07-13T06:36:11;23.10;78.70
25616;DHT22;13482;48.234;13.006;2023-07-13T06:38:39;23.10;78.70
25616;DHT22;13482;48.234;13.006;2023-07-13T06:41:07;23.10;78.60
25616;DHT22;13482;48.234;13.006;2023-07-13T06:43:36;23.20;78.70
25616;DHT22;13482;48.234;13.006;2023-07-13T06:46:03;23.20;78.60
25616;DHT22;13482;48.234;13.006;2023-07-13T06:48:31;23.20;78.60
25616;DHT22;13482;48.234;13.006;2023-07-13T06:50:59;23.20;78.60
25616;DHT22;13482;48.234;13.006;2023-07-13T06:53:26;23.30;78.50
25616;DHT22;13482;48.234;13.006;2023-07-13T06:55:53;23.30;78.40
25616;DHT22;13482;48.234;13.006;2023-07-13T06:58:22;23.30;78.40
25616;DHT22;13482;48.234;13.006;2023-07-13T07:00:53;23.30;78.40
25616;DHT22;13482;48.234;13.006;2023-07-13T07:03:20;23.40;78.40
25616;DHT22;13482;48.234;13.006;2023-07-13T07:05:48;23.40;78.50
25616;DHT22;13482;48.234;13.006;2023-07-13T07:08:15;23.40;78.60
25616;DHT22;13482;48.234;13.006;2023-07-13T07:10:43;23.50;78.60
25616;DHT22;13482;48.234;13.006;2023-07-13T07:13:10;23.60;78.50
25616;DHT22;13482;48.234;13.006;2023-07-13T07:15:38;23.60;78.40
25616;DHT22;13482;48.234;13.006;2023-07-13T07:18:05;23.70;78.20
25616;DHT22;13482;48.234;13.006;2023-07-13T07:20:33;23.80;78.10
25616;DHT22;13482;48.234;13.006;2023-07-13T07:23:00;23.80;78.00
25616;DHT22;13482;48.234;13.006;2023-07-13T07:25:27;23.90;77.80
25616;DHT22;13482;48.234;13.006;2023-07-13T07:27:58;23.90;77.40
25616;DHT22;13482;48.234;13.006;2023-07-13T07:30:29;23.90;77.30
25616;DHT22;13482;48.234;13.006;2023-07-13T07:32:59;23.90;77.40
25616;DHT22;13482;48.234;13.006;2023-07-13T07:35:31;23.90;77.40
25616;DHT22;13482;48.234;13.006;2023-07-13T07:38:03;23.90;77.10
25616;DHT22;13482;48.234;13.006;2023-07-13T07:40:31;24.00;77.10
25616;DHT22;13482;48.234;13.006;2023-07-13T07:43:01;24.00;77.10
25616;DHT22;13482;48.234;13.006;2023-07-13T07:45:29;24.00;76.90
25616;DHT22;13482;48.234;13.006;2023-07-13T07:47:56;24.00;76.80
25616;DHT22;13482;48.234;13.006;2023-07-13T07:50:27;24.00;77.00
25616;DHT22;13482;48.234;13.006;2023-07-13T07:52:55;24.00;77.10
25616;DHT22;13482;48.234;13.006;2023-07-13T07:55:26;24.10;77.30
25616;DHT22;13482;48.234;13.006;2023-07-13T07:57:56;24.10;77.20
25616;DHT22;13482;48.234;13.006;2023-07-13T08:00:27;24.20;76.90
25616;DHT22;13482;48.234;13.006;2023-07-13T08:03:17;24.20;76.40
25616;DHT22;13482;48.234;13.006;2023-07-13T08:05:48;24.20;76.20
25616;DHT22;13482;48.234;13.006;2023-07-13T08:08:35;24.30;75.90
25616;DHT22;13482;48.234;13.006;2023-07-13T08:11:05;24.30;75.90
25616;DHT22;13482;48.234;13.006;2023-07-13T08:13:37;24.30;75.80
25616;DHT22;13482;48.234;13.006;2023-07-13T08:16:05;24.30;76.10
25616;DHT22;13482;48.234;13.006;2023-07-13T08:18:33;24.30;75.90
25616;DHT22;13482;48.234;13.006;2023-07-13T08:21:07;24.40;75.80
25616;DHT22;13482;48.234;13.006;2023-07-13T08:23:36;24.40;75.40
25616;DHT22;13482;48.234;13.006;2023-07-13T08:26:03;24.50;75.70
25616;DHT22;13482;48.234;13.006;2023-07-13T08:28:32;24.50;75.80
25616;DHT22;13482;48.234;13.006;2023-07-13T08:31:04;24.60;75.90
25616;DHT22;13482;48.234;13.006;2023-07-13T08:33:33;24.70;75.80
25616;DHT22;13482;48.234;13.006;2023-07-13T08:36:02;24.70;75.30
25616;DHT22;13482;48.234;13.006;2023-07-13T08:38:30;24.80;75.20
25616;DHT22;13482;48.234;13.006;2023-07-13T08:40:57;24.90;74.80
25616;DHT22;13482;48.234;13.006;2023-07-13T08:43:30;24.90;74.80
25616;DHT22;13482;48.234;13.006;2023-07-13T08:49:14;25.10;74.50
25616;DHT22;13482;48.234;13.006;2023-07-13T08:51:49;25.20;74.20
25616;DHT22;13482;48.234;13.006;2023-07-13T08:57:18;25.30;73.70
25616;DHT22;13482;48.234;13.006;2023-07-13T08:59:47;25.40;72.50
25616;DHT22;13482;48.234;13.006;2023-07-13T09:05:38;25.50;72.90
25616;DHT22;13482;48.234;13.006;2023-07-13T09:08:43;25.60;72.90
25616;DHT22;13482;48.234;13.006;2023-07-13T09:14:39;25.80;72.40
25616;DHT22;13482;48.234;13.006;2023-07-13T09:17:40;25.80;70.50
25616;DHT22;13482;48.234;13.006;2023-07-13T09:23:05;25.90;71.30
25616;DHT22;13482;48.234;13.006;2023-07-13T09:25:37;25.90;71.20
25616;DHT22;13482;48.234;13.006;2023-07-13T09:28:13;25.90;71.40
25616;DHT22;13482;48.234;13.006;2023-07-13T09:31:06;25.90;71.30
25616;DHT22;13482;48.234;13.006;2023-07-13T09:33:37;25.90;68.70
25616;DHT22;13482;48.234;13.006;2023-07-13T09:36:27;25.90;71.00
25616;DHT22;13482;48.234;13.006;2023-07-13T09:39:04;25.90;69.50
25616;DHT22;13482;48.234;13.006;2023-07-13T09:44:34;25.80;69.80
25616;DHT22;13482;48.234;13.006;2023-07-13T09:47:16;25.80;70.70
25616;DHT22;13482;48.234;13.006;2023-07-13T09:49:55;25.80;69.10
25616;DHT22;13482;48.234;13.006;2023-07-13T09:52:45;25.80;70.30
25616;DHT22;13482;48.234;13.006;2023-07-13T09:55:30;25.90;68.80
25616;DHT22;13482;48.234;13.006;2023-07-13T09:58:15;25.90;68.60
25616;DHT22;13482;48.234;13.006;2023-07-13T10:00:57;25.90;69.40
25616;DHT22;13482;48.234;13.006;2023-07-13T10:03:31;25.90;69.00
25616;DHT22;13482;48.234;13.006;2023-07-13T10:06:15;25.80;69.60
25616;DHT22;13482;48.234;13.006;2023-07-13T10:08:51;25.80;69.30
25616;DHT22;13482;48.234;13.006;2023-07-13T10:11:22;25.70;69.50
25616;DHT22;13482;48.234;13.006;2023-07-13T10:14:01;25.70;69.90
25616;DHT22;13482;48.234;13.006;2023-07-13T10:16:32;25.70;69.80
25616;DHT22;13482;48.234;13.006;2023-07-13T10:21:54;25.80;70.10
25616;DHT22;13482;48.234;13.006;2023-07-13T10:24:26;25.90;70.10
25616;DHT22;13482;48.234;13.006;2023-07-13T10:27:16;25.90;69.90
25616;DHT22;13482;48.234;13.006;2023-07-13T10:29:52;26.00;69.50
25616;DHT22;13482;48.234;13.006;2023-07-13T10:32:24;26.00;69.20
25616;DHT22;13482;48.234;13.006;2023-07-13T10:34:52;26.00;69.40
25616;DHT22;13482;48.234;13.006;2023-07-13T10:37:26;26.00;69.40
25616;DHT22;13482;48.234;13.006;2023-07-13T10:39:56;26.00;68.90
25616;DHT22;13482;48.234;13.006;2023-07-13T10:42:30;26.00;69.10
25616;DHT22;13482;48.234;13.006;2023-07-13T10:45:00;26.00;68.70
25616;DHT22;13482;48.234;13.006;2023-07-13T10:47:28;26.00;68.90
25616;DHT22;13482;48.234;13.006;2023-07-13T10:49:58;26.00;68.80
25616;DHT22;13482;48.234;13.006;2023-07-13T10:52:45;26.00;68.60
25616;DHT22;13482;48.234;13.006;2023-07-13T10:55:36;26.00;67.60
25616;DHT22;13482;48.234;13.006;2023-07-13T10:58:22;26.00;68.20
25616;DHT22;13482;48.234;13.006;2023-07-13T11:03:31;26.00;69.20
25616;DHT22;13482;48.234;13.006;2023-07-13T11:06:17;26.10;69.10
25616;DHT22;13482;48.234;13.006;2023-07-13T11:08:52;26.20;68.40
25616;DHT22;13482;48.234;13.006;2023-07-13T11:18:53;26.40;68.10
25616;DHT22;13482;48.234;13.006;2023-07-13T11:27:42;26.60;66.90
25616;DHT22;13482;48.234;13.006;2023-07-13T11:30:31;26.60;65.90
25616;DHT22;13482;48.234;13.006;2023-07-13T11:33:03;26.70;61.60
25616;DHT22;13482;48.234;13.006;2023-07-13T11:35:36;26.60;65.90
25616;DHT22;13482;48.234;13.006;2023-07-13T11:38:18;26.60;65.40
25616;DHT22;13482;48.234;13.006;2023-07-13T11:41:00;26.50;63.70
25616;DHT22;13482;48.234;13.006;2023-07-13T11:43:30;26.40;64.40
25616;DHT22;13482;48.234;13.006;2023-07-13T11:46:24;26.40;64.40
25616;DHT22;13482;48.234;13.006;2023-07-13T11:48:54;26.30;63.10
25616;DHT22;13482;48.234;13.006;2023-07-13T11:51:33;26.20;64.70
25616;DHT22;13482;48.234;13.006;2023-07-13T11:54:12;26.10;63.20
25616;DHT22;13482;48.234;13.006;2023-07-13T11:56:48;26.10;64.60
25616;DHT22;13482;48.234;13.006;2023-07-13T11:59:18;25.90;65.10
25616;DHT22;13482;48.234;13.006;2023-07-13T12:01:50;25.90;65.10
25616;DHT22;13482;48.234;13.006;2023-07-13T12:04:28;25.90;64.80
25616;DHT22;13482;48.234;13.006;2023-07-13T12:07:04;25.80;64.70
25616;DHT22;13482;48.234;13.006;2023-07-13T12:09:41;25.80;64.60
25616;DHT22;13482;48.234;13.006;2023-07-13T12:12:13;25.80;65.20
25616;DHT22;13482;48.234;13.006;2023-07-13T12:14:42;25.90;64.70
25616;DHT22;13482;48.234;13.006;2023-07-13T12:17:18;25.90;65.30
25616;DHT22;13482;48.234;13.006;2023-07-13T12:19:51;26.00;65.30
25616;DHT22;13482;48.234;13.006;2023-07-13T12:22:20;26.10;64.40
25616;DHT22;13482;48.234;13.006;2023-07-13T12:24:51;26.10;64.90
25616;DHT22;13482;48.234;13.006;2023-07-13T12:27:27;26.20;65.20
25616;DHT22;13482;48.234;13.006;2023-07-13T12:30:02;26.30;64.60
25616;DHT22;13482;48.234;13.006;2023-07-13T12:32:32;26.40;63.90
25616;DHT22;13482;48.234;13.006;2023-07-13T12:35:17;26.50;64.80
25616;DHT22;13482;48.234;13.006;2023-07-13T12:37:48;26.80;61.50
25616;DHT22;13482;48.234;13.006;2023-07-13T12:40:19;26.90;63.60
25616;DHT22;13482;48.234;13.006;2023-07-13T12:42:50;27.10;63.10
25616;DHT22;13482;48.234;13.006;2023-07-13T12:45:21;27.30;62.70
25616;DHT22;13482;48.234;13.006;2023-07-13T12:47:53;27.50;62.40
25616;DHT22;13482;48.234;13.006;2023-07-13T12:50:24;27.70;60.60
25616;DHT22;13482;48.234;13.006;2023-07-13T12:53:02;27.80;61.30
25616;DHT22;13482;48.234;13.006;2023-07-13T12:55:31;27.90;60.90
25616;DHT22;13482;48.234;13.006;2023-07-13T12:58:03;28.00;61.10
25616;DHT22;13482;48.234;13.006;2023-07-13T13:00:38;28.10;60.50
25616;DHT22;13482;48.234;13.006;2023-07-13T13:03:29;28.10;59.50
25616;DHT22;13482;48.234;13.006;2023-07-13T13:08:46;28.30;57.70
25616;DHT22;13482;48.234;13.006;2023-07-13T13:11:19;28.40;59.50
25616;DHT22;13482;48.234;13.006;2023-07-13T13:13:49;28.50;58.90
25616;DHT22;13482;48.234;13.006;2023-07-13T13:16:32;28.60;59.00
25616;DHT22;13482;48.234;13.006;2023-07-13T13:19:15;28.70;58.00
25616;DHT22;13482;48.234;13.006;2023-07-13T13:21:45;28.90;55.20
25616;DHT22;13482;48.234;13.006;2023-07-13T13:24:19;28.90;57.20
25616;DHT22;13482;48.234;13.006;2023-07-13T13:26:49;29.00;56.10
25616;DHT22;13482;48.234;13.006;2023-07-13T13:29:22;29.10;56.90
25616;DHT22;13482;48.234;13.006;2023-07-13T13:31:54;29.20;56.30
25616;DHT22;13482;48.234;13.006;2023-07-13T13:34:23;29.30;56.30
25616;DHT22;13482;48.234;13.006;2023-07-13T13:36:52;29.30;56.50
25616;DHT22;13482;48.234;13.006;2023-07-13T13:39:34;29.40;56.10
25616;DHT22;13482;48.234;13.006;2023-07-13T13:42:04;29.50;54.60
25616;DHT22;13482;48.234;13.006;2023-07-13T13:44:32;29.50;53.20
25616;DHT22;13482;48.234;13.006;2023-07-13T13:46:59;29.50;53.80
25616;DHT22;13482;48.234;13.006;2023-07-13T13:49:27;29.50;54.10
25616;DHT22;13482;48.234;13.006;2023-07-13T13:51:56;29.40;54.00
25616;DHT22;13482;48.234;13.006;2023-07-13T13:54:24;29.40;54.20
25616;DHT22;13482;48.234;13.006;2023-07-13T13:56:53;29.30;54.30
25616;DHT22;13482;48.234;13.006;2023-07-13T13:59:22;29.30;54.80
25616;DHT22;13482;48.234;13.006;2023-07-13T14:01:50;29.30;54.20
25616;DHT22;13482;48.234;13.006;2023-07-13T14:04:20;29.30;54.70
25616;DHT22;13482;48.234;13.006;2023-07-13T14:06:49;29.30;55.10
25616;DHT22;13482;48.234;13.006;2023-07-13T14:09:19;29.40;55.10
25616;DHT22;13482;48.234;13.006;2023-07-13T14:11:48;29.40;53.90
25616;DHT22;13482;48.234;13.006;2023-07-13T14:14:20;29.30;53.80
25616;DHT22;13482;48.234;13.006;2023-07-13T14:16:56;29.30;54.40
25616;DHT22;13482;48.234;13.006;2023-07-13T14:19:24;29.30;54.80
25616;DHT22;13482;48.234;13.006;2023-07-13T14:21:52;29.30;54.70
25616;DHT22;13482;48.234;13.006;2023-07-13T14:24:21;29.30;54.10
25616;DHT22;13482;48.234;13.006;2023-07-13T14:26:49;29.30;54.70
25616;DHT22;13482;48.234;13.006;2023-07-13T14:29:18;29.40;54.70
25616;DHT22;13482;48.234;13.006;2023-07-13T14:31:50;29.40;54.50
25616;DHT22;13482;48.234;13.006;2023-07-13T14:34:18;29.40;54.00
25616;DHT22;13482;48.234;13.006;2023-07-13T14:36:48;29.30;54.40
25616;DHT22;13482;48.234;13.006;2023-07-13T14:39:23;29.30;54.60
25616;DHT22;13482;48.234;13.006;2023-07-13T14:41:54;29.30;54.80
25616;DHT22;13482;48.234;13.006;2023-07-13T14:44:28;29.30;55.30
25616;DHT22;13482;48.234;13.006;2023-07-13T14:47:01;29.40;55.70
25616;DHT22;13482;48.234;13.006;2023-07-13T14:49:43;29.50;55.30
25616;DHT22;13482;48.234;13.006;2023-07-13T14:52:16;29.70;54.60
25616;DHT22;13482;48.234;13.006;2023-07-13T14:54:46;29.70;54.60
25616;DHT22;13482;48.234;13.006;2023-07-13T14:57:16;29.80;54.20
25616;DHT22;13482;48.234;13.006;2023-07-13T14:59:48;29.80;54.40
25616;DHT22;13482;48.234;13.006;2023-07-13T15:02:27;29.80;54.70
25616;DHT22;13482;48.234;13.006;2023-07-13T15:04:58;29.90;54.50
25616;DHT22;13482;48.234;13.006;2023-07-13T15:07:25;29.90;54.60
25616;DHT22;13482;48.234;13.006;2023-07-13T15:09:53;30.00;54.40
25616;DHT22;13482;48.234;13.006;2023-07-13T15:12:21;30.10;54.90
25616;DHT22;13482;48.234;13.006;2023-07-13T15:14:49;30.20;54.90
25616;DHT22;13482;48.234;13.006;2023-07-13T15:19:54;30.40;52.80
25616;DHT22;13482;48.234;13.006;2023-07-13T15:22:23;30.40;53.50
25616;DHT22;13482;48.234;13.006;2023-07-13T15:24:50;30.40;53.20
25616;DHT22;13482;48.234;13.006;2023-07-13T15:27:18;30.40;53.40
25616;DHT22;13482;48.234;13.006;2023-07-13T15:29:45;30.40;53.60
25616;DHT22;13482;48.234;13.006;2023-07-13T15:32:14;30.30;53.40
25616;DHT22;13482;48.234;13.006;2023-07-13T15:34:41;30.30;53.20
25616;DHT22;13482;48.234;13.006;2023-07-13T15:37:14;30.20;53.30
25616;DHT22;13482;48.234;13.006;2023-07-13T15:39:43;30.20;53.00
25616;DHT22;13482;48.234;13.006;2023-07-13T15:42:18;30.20;53.30
25616;DHT22;13482;48.234;13.006;2023-07-13T15:44:47;30.10;53.40
25616;DHT22;13482;48.234;13.006;2023-07-13T15:47:15;30.10;53.70
25616;DHT22;13482;48.234;13.006;2023-07-13T15:49:43;30.10;53.50
25616;DHT22;13482;48.234;13.006;2023-07-13T15:52:17;30.10;53.50
25616;DHT22;13482;48.234;13.006;2023-07-13T15:54:47;30.10;52.90
25616;DHT22;13482;48.234;13.006;2023-07-13T15:57:15;30.00;53.40
25616;DHT22;13482;48.234;13.006;2023-07-13T15:59:43;30.00;53.50
25616;DHT22;13482;48.234;13.006;2023-07-13T16:02:18;30.00;53.20
25616;DHT22;13482;48.234;13.006;2023-07-13T16:04:47;29.90;52.90
25616;DHT22;13482;48.234;13.006;2023-07-13T16:07:17;29.90;53.30
25616;DHT22;13482;48.234;13.006;2023-07-13T16:09:45;29.80;53.20
25616;DHT22;13482;48.234;13.006;2023-07-13T16:12:14;29.70;53.10
25616;DHT22;13482;48.234;13.006;2023-07-13T16:14:42;29.60;52.90
25616;DHT22;13482;48.234;13.006;2023-07-13T16:17:11;29.50;53.20
25616;DHT22;13482;48.234;13.006;2023-07-13T16:19:40;29.50;53.30
25616;DHT22;13482;48.234;13.006;2023-07-13T16:22:18;29.40;53.20
25616;DHT22;13482;48.234;13.006;2023-07-13T16:24:46;29.40;52.80
25616;DHT22;13482;48.234;13.006;2023-07-13T16:27:14;29.30;53.50